Time;durP1;ratioP1;P1;durP2;ratioP2;P2;SDS_P1;SDS_P2;PMS_P1;PMS_P2;Temp;Humidity;BMP_temperature;BMP_pressure;BME280_temperature;BME280_humidity;BME280_pressure;Samples;Min_cycle;Max_cycle;Signal;HPM_P1;HPM_P2
2023/09/03 00:00:47;;;;;;;;;;;;;;;8.46;100.00;100285.94;5041244;28;19917;-84
2023/09/03 00:03:13;;;;;;;;;;;;;;;8.34;100.00;100284.47;5042401;28;19963;-85
2023/09/03 00:05:46;;;;;;;;;;;;;;;8.44;100.00;100297.44;5042626;28;19917;-83
2023/09/03 00:08:11;;;;;;;;;;;;;;;8.40;100.00;100312.47;5041113;28;19920;-84
2023/09/03 00:10:37;;;;;;;;;;;;;;;8.42;100.00;100305.38;5041031;28;20035;-83
2023/09/03 00:13:03;;;;;;;;;;;;;;;8.44;100.00;100308.00;5042262;28;20324;-83
2023/09/03 00:15:31;;;;;;;;;;;;;;;8.43;100.00;100301.88;5041562;28;19917;-91
2023/09/03 00:17:57;;;;;;;;;;;;;;;8.39;100.00;100308.09;5041427;28;19956;-83
2023/09/03 00:20:22;;;;;;;;;;;;;;;8.41;100.00;100302.75;5042578;28;19956;-81
2023/09/03 00:22:47;;;;;;;;;;;;;;;8.46;100.00;100304.44;5042856;28;19917;-86
2023/09/03 00:25:12;;;;;;;;;;;;;;;8.36;100.00;100302.91;5040757;28;20443;-82
2023/09/03 00:27:38;;;;;;;;;;;;;;;8.41;100.00;100305.41;5042231;28;19934;-82
2023/09/03 00:30:03;;;;;;;;;;;;;;;8.43;100.00;100312.44;5041525;28;20004;-82
2023/09/03 00:32:28;;;;;;;;;;;;;;;8.42;100.00;100308.00;5042039;28;20279;-83
2023/09/03 00:34:53;;;;;;;;;;;;;;;8.41;100.00;100311.56;5042007;28;20269;-82
2023/09/03 00:37:19;;;;;;;;;;;;;;;8.39;100.00;100313.38;5042206;28;19916;-82
2023/09/03 00:39:44;;;;;;;;;;;;;;;8.34;100.00;100315.25;5042085;28;19921;-82
2023/09/03 00:42:09;;;;;;;;;;;;;;;8.36;100.00;100316.97;5041802;28;20364;-82
2023/09/03 00:44:34;;;;;;;;;;;;;;;8.44;100.00;100314.19;5040600;28;20287;-82
2023/09/03 00:47:00;;;;;;;;;;;;;;;8.39;100.00;100318.66;5041415;28;19921;-83
2023/09/03 00:49:26;;;;;;;;;;;;;;;8.33;100.00;100326.75;5041767;28;19978;-82
2023/09/03 00:51:53;;;;;;;;;;;;;;;8.34;100.00;100320.53;5042049;28;19920;-83
2023/09/03 00:54:19;;;;;;;;;;;;;;;8.37;100.00;100328.38;5041917;28;20261;-83
2023/09/03 00:56:45;;;;;;;;;;;;;;;8.34;100.00;100325.81;5040283;28;19921;-82
2023/09/03 08:00:21;;;;;;;;;;;;;;;7.87;100.00;100597.00;5026085;28;19931;-84
2023/09/03 08:02:47;;;;;;;;;;;;;;;7.87;100.00;100589.94;5032686;28;20318;-83
2023/09/03 08:05:12;;;;;;;;;;;;;;;7.92;100.00;100592.50;5032748;28;19917;-84
2023/09/03 08:07:38;;;;;;;;;;;;;;;7.92;100.00;100600.41;5032412;28;19917;-81
2023/09/03 08:10:03;;;;;;;;;;;;;;;7.85;100.00;100601.41;5032596;28;19932;-83
2023/09/03 08:12:28;;;;;;;;;;;;;;;7.88;100.00;100601.34;5031323;28;19936;-83
2023/09/03 08:14:53;;;;;;;;;;;;;;;7.93;100.00;100608.28;5032514;28;20473;-83
2023/09/03 08:17:20;;;;;;;;;;;;;;;7.93;100.00;100605.66;5032557;28;19947;-83
2023/09/03 08:19:47;;;;;;;;;;;;;;;7.92;100.00;100603.03;5031557;28;19971;-83
2023/09/03 08:22:12;;;;;;;;;;;;;;;7.92;100.00;100603.03;5032231;28;19921;-83
2023/09/03 08:24:37;;;;;;;;;;;;;;;7.94;100.00;100593.31;5032383;28;19921;-83
2023/09/03 08:27:02;;;;;;;;;;;;;;;7.97;100.00;100603.81;5013367;28;19917;-82
2023/09/03 08:29:28;;;;;;;;;;;;;;;7.89;100.00;100598.69;5031774;28;20423;-83
2023/09/03 08:31:53;;;;;;;;;;;;;;;8.01;100.00;100605.50;5032159;28;19927;-83
2023/09/03 08:34:18;;;;;;;;;;;;;;;8.02;100.00;100596.69;5014686;28;19928;-84
2023/09/03 08:36:43;;;;;;;;;;;;;;;8.00;100.00;100607.25;5032040;28;19917;-84
2023/09/03 08:39:09;;;;;;;;;;;;;;;8.03;100.00;100606.34;5032253;28;19925;-84
2023/09/03 08:41:36;;;;;;;;;;;;;;;8.05;100.00;100604.53;5030801;28;20004;-83
2023/09/03 08:44:10;;;;;;;;;;;;;;;8.10;100.00;100604.44;5032045;28;19991;-82
2023/09/03 08:46:36;;;;;;;;;;;;;;;8.02;100.00;100615.16;5032151;28;20008;-83
2023/09/03 08:49:02;;;;;;;;;;;;;;;7.98;100.00;100613.50;5032143;28;19917;-83
2023/09/03 08:51:28;;;;;;;;;;;;;;;8.10;100.00;100613.22;5031227;28;19918;-84
2023/09/03 08:53:55;;;;;;;;;;;;;;;8.06;100.00;100611.56;5031883;28;19925;-82
2023/09/03 08:56:21;;;;;;;;;;;;;;;8.04;100.00;100616.00;5030763;28;19921;-82
2023/09/03 08:58:47;;;;;;;;;;;;;;;8.08;100.00;100616.81;5031826;28;19921;-83
2023/09/03 09:01:13;;;;;;;;;;;;;;;8.08;100.00;100630.88;5014341;28;19917;-83
2023/09/03 09:03:38;;;;;;;;;;;;;;;8.06;100.00;100624.75;5013333;28;19917;-83
2023/09/03 09:06:06;;;;;;;;;;;;;;;8.08;100.00;100633.50;5031810;28;19921;-83
2023/09/03 09:08:32;;;;;;;;;;;;;;;8.06;100.00;100632.69;5031856;28;19971;-83
2023/09/03 09:11:01;;;;;;;;;;;;;;;8.17;100.00;100638.63;5031748;28;19917;-83
2023/09/03 09:13:27;;;;;;;;;;;;;;;8.02;100.00;100638.91;5030917;28;19944;-83
2023/09/03 09:15:52;;;;;;;;;;;;;;;8.05;100.00;100635.34;5031955;28;19929;-83
2023/09/03 09:18:17;;;;;;;;;;;;;;;8.07;100.00;100637.03;5031800;28;19918;-83
2023/09/03 09:20:43;;;;;;;;;;;;;;;8.16;100.00;100643.94;5031504;28;19995;-83
2023/09/03 09:23:08;;;;;;;;;;;;;;;8.07;100.00;100649.38;5014354;28;19917;-83
2023/09/03 12:53:50;;;;;;;;;;;;;;;8.24;100.00;100635.88;5730598;23;19929;-83
2023/09/03 12:56:15;;;;;;;;;;;;;;;8.28;100.00;100632.25;5042523;28;19940;-82
2023/09/03 12:58:41;;;;;;;;;;;;;;;8.34;100.00;100634.78;5042070;28;19921;-81
2023/09/03 13:01:08;;;;;;;;;;;;;;;8.27;100.00;100633.16;5040940;28;19921;-82
2023/09/03 13:03:33;;;;;;;;;;;;;;;8.31;100.00;100625.16;5041865;28;20027;-81
2023/09/03 13:05:58;;;;;;;;;;;;;;;8.30;100.00;100618.13;5042608;28;20431;-83
2023/09/03 13:08:24;;;;;;;;;;;;;;;8.26;100.00;100619.06;5040562;28;19921;-82
2023/09/03 13:10:50;;;;;;;;;;;;;;;8.26;100.00;100624.34;5041966;28;19920;-81
2023/09/03 13:13:15;;;;;;;;;;;;;;;8.22;100.00;100625.34;5041971;28;20012;-82
2023/09/03 13:15:40;;;;;;;;;;;;;;;8.25;100.00;100613.81;5043313;28;19917;-83
2023/09/03 13:18:06;;;;;;;;;;;;;;;8.23;100.00;100618.28;5045967;28;20002;-82
2023/09/03 13:20:32;;;;;;;;;;;;;;;8.23;100.00;100618.28;5028336;28;19927;-84
2023/09/03 13:22:57;;;;;;;;;;;;;;;8.22;100.00;100614.78;5043563;28;20768;-84
2023/09/03 13:25:23;;;;;;;;;;;;;;;8.20;100.00;100613.94;5045472;28;20318;-83
2023/09/03 13:27:48;;;;;;;;;;;;;;;8.19;100.00;100615.69;5046028;28;19925;-84
2023/09/03 13:30:13;;;;;;;;;;;;;;;8.19;100.00;100609.56;5045425;28;19917;-84
2023/09/03 13:32:38;;;;;;;;;;;;;;;8.16;100.00;100613.13;5027663;28;20020;-86
2023/09/03 13:35:04;;;;;;;;;;;;;;;8.22;100.00;100616.53;5045348;28;19943;-84
2023/09/03 13:37:29;;;;;;;;;;;;;;;8.17;100.00;100614.88;5045774;28;19917;-83
2023/09/03 13:39:54;;;;;;;;;;;;;;;8.23;100.00;100615.63;5044067;28;20291;-83
2023/09/03 13:42:19;;;;;;;;;;;;;;;8.24;100.00;100612.97;5045135;28;19920;-83
2023/09/03 13:44:45;;;;;;;;;;;;;;;8.16;100.00;100610.47;5045377;28;19916;-85
2023/09/03 13:47:10;;;;;;;;;;;;;;;8.25;100.00;100617.34;5045727;28;19971;-84
2023/09/03 13:49:35;;;;;;;;;;;;;;;8.15;100.00;100608.75;5027337;28;19917;-84
2023/09/03 13:52:01;;;;;;;;;;;;;;;8.21;100.00;100606.88;5026892;28;19928;-84
2023/09/03 13:54:26;;;;;;;;;;;;;;;8.24;100.00;100609.47;5048709;28;20425;-87
2023/09/03 13:56:51;;;;;;;;;;;;;;;8.25;100.00;100606.78;5047356;28;19931;-82
2023/09/03 13:59:16;;;;;;;;;;;;;;;8.25;100.00;100603.25;5064816;28;19967;-83
2023/09/03 14:01:42;;;;;;;;;;;;;;;8.31;100.00;100608.44;5064714;28;20008;-84
2023/09/03 14:04:07;;;;;;;;;;;;;;;8.34;100.00;100605.72;5064996;28;19916;-83
2023/09/03 14:06:34;;;;;;;;;;;;;;;8.22;100.00;100609.50;5047123;28;19917;-83
2023/09/03 14:08:59;;;;;;;;;;;;;;;8.21;100.00;100602.47;5063510;28;19917;-84
2023/09/03 14:11:24;;;;;;;;;;;;;;;8.22;100.00;100601.56;5064852;28;20061;-84
2023/09/03 14:13:50;;;;;;;;;;;;;;;8.19;100.00;100593.72;5046931;28;20512;-91
2023/09/03 14:16:16;;;;;;;;;;;;;;;8.24;100.00;100604.19;5046486;28;20387;-84
2023/09/03 14:18:42;;;;;;;;;;;;;;;8.21;100.00;100596.31;5063588;28;20394;-82
2023/09/03 14:21:07;;;;;;;;;;;;;;;8.17;100.00;100596.38;5046568;28;19916;-84
2023/09/03 14:23:32;;;;;;;;;;;;;;;8.27;100.00;100590.91;5063687;28;19913;-84
2023/09/03 14:25:58;;;;;;;;;;;;;;;8.16;100.00;100592.00;5064620;28;19921;-84
2023/09/03 14:28:23;;;;;;;;;;;;;;;8.31;100.00;100590.84;5063208;28;20377;-82
2023/09/03 14:30:48;;;;;;;;;;;;;;;8.23;100.00;100589.22;5046629;28;19916;-82
2023/09/03 14:33:13;;;;;;;;;;;;;;;8.19;100.00;100584.00;5064759;28;19925;-83
2023/09/03 14:35:39;;;;;;;;;;;;;;;8.20;100.00;100587.53;5064407;28;19952;-86
2023/09/03 14:38:04;;;;;;;;;;;;;;;8.25;100.00;100577.75;5062100;28;19966;-83
2023/09/03 14:40:29;;;;;;;;;;;;;;;8.19;100.00;100584.00;5063271;28;19986;-83
2023/09/03 14:42:54;;;;;;;;;;;;;;;8.21;100.00;100585.75;5064352;28;19921;-83
2023/09/03 14:45:20;;;;;;;;;;;;;;;8.13;100.00;100584.13;5064322;28;20011;-82
2023/09/03 14:47:45;;;;;;;;;;;;;;;8.17;100.00;100582.31;5063966;28;19967;-83
2023/09/03 14:50:11;;;;;;;;;;;;;;;8.23;100.00;100583.94;5063848;28;20318;-82
2023/09/03 14:52:36;;;;;;;;;;;;;;;8.27;100.00;100580.38;5063469;28;20007;-83
2023/09/03 14:55:02;;;;;;;;;;;;;;;8.24;100.00;100573.38;5062557;28;19933;-83
2023/09/03 14:57:28;;;;;;;;;;;;;;;8.18;100.00;100578.75;5063988;28;20011;-83
2023/09/03 14:59:54;;;;;;;;;;;;;;;8.14;100.00;100577.09;5063758;28;20354;-83
2023/09/03 15:02:19;;;;;;;;;;;;;;;8.22;100.00;100582.19;5063652;28;19963;-83
2023/09/03 15:04:46;;;;;;;;;;;;;;;8.18;100.00;100586.69;5064271;28;20018;-82
2023/09/03 15:07:12;;;;;;;;;;;;;;;8.18;100.00;100582.28;5063572;28;20126;-82
2023/09/03 15:09:37;;;;;;;;;;;;;;;8.18;100.00;100587.56;5061974;28;21070;-81
2023/09/03 15:12:02;;;;;;;;;;;;;;;8.24;100.00;100585.72;5046030;28;19917;-82
2023/09/03 15:14:28;;;;;;;;;;;;;;;8.24;100.00;100590.97;5045935;28;19939;-85
2023/09/03 15:16:53;;;;;;;;;;;;;;;8.26;100.00;100591.81;5063543;28;19917;-83
2023/09/03 15:19:18;;;;;;;;;;;;;;;8.27;100.00;100597.06;5063191;28;19921;-82
2023/09/03 15:21:45;;;;;;;;;;;;;;;8.24;100.00;100590.97;5063933;28;19955;-83
2023/09/03 15:24:10;;;;;;;;;;;;;;;8.21;100.00;100583.97;5061492;28;20367;-82
2023/09/03 15:26:45;;;;;;;;;;;;;;;8.24;100.00;100590.97;5062809;28;19936;-83
2023/09/03 15:29:11;;;;;;;;;;;;;;;8.25;100.00;100579.50;5061894;28;19928;-81
2023/09/03 15:31:36;;;;;;;;;;;;;;;8.29;100.00;100578.56;5044133;28;19917;-84
2023/09/03 15:34:02;;;;;;;;;;;;;;;8.22;100.00;100580.44;5062827;28;20066;-81
2023/09/03 15:36:28;;;;;;;;;;;;;;;8.21;100.00;100576.06;5063997;28;19939;-81
2023/09/03 15:38:53;;;;;;;;;;;;;;;8.12;100.00;100578.88;5061823;28;19917;-82
2023/09/03 15:41:19;;;;;;;;;;;;;;;8.14;100.00;100575.31;5062741;28;19928;-83
2023/09/03 15:43:44;;;;;;;;;;;;;;;8.20;100.00;100566.44;5044433;28;19963;-83
2023/09/03 15:46:10;;;;;;;;;;;;;;;8.24;100.00;100575.16;5062415;28;19924;-84
2023/09/03 15:48:36;;;;;;;;;;;;;;;8.17;100.00;100572.63;5062663;28;20287;-84
2023/09/03 15:51:02;;;;;;;;;;;;;;;8.22;100.00;100576.91;5045029;28;19920;-84
2023/09/03 15:53:28;;;;;;;;;;;;;;;8.21;100.00;100576.06;5061509;28;19921;-83
2023/09/03 15:55:56;;;;;;;;;;;;;;;8.14;100.00;100571.81;5062645;28;19921;-83
2023/09/03 15:58:22;;;;;;;;;;;;;;;8.29;100.00;100583.84;5062150;28;19917;-82
2023/09/03 16:00:47;;;;;;;;;;;;;;;8.18;100.00;100576.13;5062808;28;19920;-82
2023/09/03 16:03:14;;;;;;;;;;;;;;;8.23;100.00;100570.75;5062690;28;20364;-89
2023/09/03 16:05:44;;;;;;;;;;;;;;;8.20;100.00;100574.34;5043420;28;20360;-82
2023/09/03 16:08:12;;;;;;;;;;;;;;;8.22;100.00;100577.81;5061962;28;20677;-84
2023/09/03 16:10:37;;;;;;;;;;;;;;;8.25;100.00;100576.84;5062269;28;19970;-82
2023/09/03 16:13:05;;;;;;;;;;;;;;;8.22;100.00;100576.91;5063048;28;19920;-82
2023/09/03 16:15:30;;;;;;;;;;;;;;;8.29;100.00;100584.69;5061357;28;20034;-84
2023/09/03 16:17:55;;;;;;;;;;;;;;;8.26;100.00;100583.88;5062329;28;20035;-84
2023/09/03 16:20:21;;;;;;;;;;;;;;;8.18;100.00;100587.56;5062563;28;19917;-84
2023/09/03 16:22:47;;;;;;;;;;;;;;;8.24;100.00;100590.97;5061509;28;19912;-85
2023/09/03 16:25:12;;;;;;;;;;;;;;;8.21;100.00;100588.41;5061535;28;19990;-83
2023/09/03 16:27:38;;;;;;;;;;;;;;;8.27;100.00;100593.56;5062225;28;19917;-85
2023/09/03 16:30:04;;;;;;;;;;;;;;;8.31;100.00;100584.66;5056808;22;19932;-84
2023/09/03 16:32:29;;;;;;;;;;;;;;;8.23;100.00;100579.53;5040809;28;19924;-85
2023/09/03 16:34:54;;;;;;;;;;;;;;;8.30;100.00;100585.59;5042268;28;19913;-84
2023/09/03 16:37:20;;;;;;;;;;;;;;;8.24;100.00;100590.97;5042082;28;19917;-86
2023/09/03 16:39:48;;;;;;;;;;;;;;;8.24;100.00;100591.84;5040344;28;19917;-84
2023/09/03 16:42:13;;;;;;;;;;;;;;;8.22;100.00;100592.75;5041125;28;19922;-84
2023/09/03 16:44:39;;;;;;;;;;;;;;;8.27;100.00;100590.91;5041671;28;19924;-86
2023/09/03 16:47:06;;;;;;;;;;;;;;;8.17;100.00;100591.09;5040359;28;20398;-84
2023/09/03 16:49:32;;;;;;;;;;;;;;;8.16;100.00;100589.34;5041078;28;19923;-83
2023/09/03 16:51:58;;;;;;;;;;;;;;;8.25;100.00;100587.41;5040188;28;20360;-86
2023/09/03 16:54:23;;;;;;;;;;;;;;;8.27;100.00;100586.50;5038760;28;20031;-83
2023/09/03 16:56:49;;;;;;;;;;;;;;;8.16;100.00;100578.78;5041469;28;19943;-82
2023/09/03 16:59:14;;;;;;;;;;;;;;;8.16;100.00;100573.50;5042337;28;19926;-83
2023/09/03 17:01:40;;;;;;;;;;;;;;;8.29;100.00;100566.22;5040845;28;19921;-84
2023/09/03 17:04:07;;;;;;;;;;;;;;;8.28;100.00;100568.88;5040689;28;19921;-83
2023/09/03 17:06:32;;;;;;;;;;;;;;;8.33;100.00;100564.41;5041291;28;19917;-83
2023/09/03 17:08:58;;;;;;;;;;;;;;;8.18;100.00;100561.19;5040327;28;20368;-84
2023/09/03 17:11:23;;;;;;;;;;;;;;;8.20;100.00;100561.16;5042706;28;19921;-84
2023/09/03 17:13:49;;;;;;;;;;;;;;;8.17;100.00;100562.06;5041365;28;20036;-83
2023/09/03 17:16:15;;;;;;;;;;;;;;;8.14;100.00;100559.47;5040078;28;19917;-83
2023/09/03 17:18:40;;;;;;;;;;;;;;;8.28;100.00;100561.84;5041662;28;19936;-83
2023/09/03 17:21:05;;;;;;;;;;;;;;;8.30;100.00;100567.97;5042176;28;20012;-90
2023/09/03 17:23:31;;;;;;;;;;;;;;;8.28;100.00;100567.13;5040471;28;19917;-83
2023/09/03 17:25:57;;;;;;;;;;;;;;;8.28;100.00;100558.31;5041621;28;20055;-83
2023/09/03 17:28:22;;;;;;;;;;;;;;;8.28;100.00;100571.53;5041583;28;19968;-86
2023/09/03 17:30:47;;;;;;;;;;;;;;;8.28;100.00;100571.53;5040880;28;19925;-82
2023/09/03 17:33:12;;;;;;;;;;;;;;;8.32;100.00;100565.28;5042267;28;19921;-83
2023/09/03 17:35:39;;;;;;;;;;;;;;;8.30;100.00;100567.97;5041290;28;19921;-84
2023/09/03 17:38:04;;;;;;;;;;;;;;;8.21;100.00;100562.00;5040770;28;19924;-85
2023/09/03 17:40:30;;;;;;;;;;;;;;;8.29;100.00;100570.63;5042178;28;20271;-88
2023/09/03 17:42:55;;;;;;;;;;;;;;;8.28;100.00;100571.53;5041746;28;20356;-85
2023/09/03 17:45:20;;;;;;;;;;;;;;;8.29;100.00;100568.00;5040042;28;19928;-85
2023/09/03 17:47:46;;;;;;;;;;;;;;;8.31;100.00;100568.81;5036326;28;19967;-84
2023/09/03 17:50:11;;;;;;;;;;;;;;;8.18;100.00;100571.75;5039894;28;19971;-83
2023/09/03 17:52:36;;;;;;;;;;;;;;;8.21;100.00;100576.06;5041108;28;19917;-83
2023/09/03 17:55:02;;;;;;;;;;;;;;;8.25;100.00;100579.50;5039480;28;19964;-85
2023/09/03 17:57:30;;;;;;;;;;;;;;;8.24;100.00;100575.16;5040462;28;19921;-84
2023/09/03 17:59:56;;;;;;;;;;;;;;;8.31;100.00;100579.38;5040185;28;19944;-84
2023/09/03 18:02:21;;;;;;;;;;;;;;;8.25;100.00;100571.56;5040900;28;19918;-94
2023/09/03 18:05:04;;;;;;;;;;;;;;;8.32;100.00;100570.56;5042787;28;19963;-94
2023/09/03 18:07:29;;;;;;;;;;;;;;;8.25;100.00;100568.94;5043408;28;20364;-88
2023/09/03 18:09:55;;;;;;;;;;;;;;;8.25;100.00;100580.41;5041271;28;19924;-84
2023/09/03 18:12:20;;;;;;;;;;;;;;;8.24;100.00;100583.06;5041862;28;19975;-86
2023/09/03 18:14:46;;;;;;;;;;;;;;;8.24;100.00;100576.00;5044245;28;19925;-88
2023/09/03 18:17:11;;;;;;;;;;;;;;;8.26;100.00;100570.69;5042328;28;19929;-84
2023/09/03 18:19:36;;;;;;;;;;;;;;;8.22;100.00;100571.66;5041932;28;19971;-84
2023/09/03 18:22:01;;;;;;;;;;;;;;;8.27;100.00;100572.44;5040624;28;19925;-84
2023/09/03 18:24:27;;;;;;;;;;;;;;;8.22;100.00;100569.00;5037785;28;20015;-84
2023/09/03 18:26:52;;;;;;;;;;;;;;;8.24;100.00;100570.72;5038345;28;20400;-84
2023/09/03 18:29:17;;;;;;;;;;;;;;;8.29;100.00;100568.84;5041857;28;20313;-83
2023/09/03 18:31:43;;;;;;;;;;;;;;;8.28;100.00;100566.25;5038801;28;20020;-83
2023/09/03 18:34:08;;;;;;;;;;;;;;;8.32;100.00;100563.50;5039194;28;20326;-84
2023/09/03 18:36:33;;;;;;;;;;;;;;;8.31;100.00;100568.81;5042837;28;19924;-84
2023/09/03 18:38:58;;;;;;;;;;;;;;;8.28;100.00;100566.25;5036688;28;20452;-82
2023/09/03 18:41:23;;;;;;;;;;;;;;;8.23;100.00;100570.75;5040635;28;19991;-84
2023/09/03 18:43:49;;;;;;;;;;;;;;;8.27;100.00;100578.59;5038788;28;19971;-84
2023/09/03 18:46:14;;;;;;;;;;;;;;;8.24;100.00;100583.94;5040865;28;19925;-83
2023/09/03 18:48:39;;;;;;;;;;;;;;;8.31;100.00;100579.38;5034898;28;20368;-85
2023/09/03 18:51:05;;;;;;;;;;;;;;;8.27;100.00;100586.50;5038705;28;19924;-84
2023/09/03 18:53:30;;;;;;;;;;;;;;;8.25;100.00;100588.31;5037538;28;19926;-84
2023/09/03 18:56:01;;;;;;;;;;;;;;;8.28;100.00;100582.97;5036767;28;20543;-85
2023/09/03 18:58:26;;;;;;;;;;;;;;;8.35;100.00;100583.72;5055635;28;19959;-85
2023/09/03 19:00:53;;;;;;;;;;;;;;;8.23;100.00;100589.22;5039040;28;20394;-86
2023/09/03 19:03:19;;;;;;;;;;;;;;;8.25;100.00;100584.78;5034297;28;19921;-85
2023/09/03 19:05:44;;;;;;;;;;;;;;;8.30;100.00;100582.94;5039583;28;19925;-85
2023/09/03 19:08:09;;;;;;;;;;;;;;;8.31;100.00;100592.56;5033127;28;19964;-84
2023/09/03 19:10:35;;;;;;;;;;;;;;;8.25;100.00;100593.59;5034440;28;20032;-85
2023/09/03 19:13:04;;;;;;;;;;;;;;;8.28;100.00;100603.19;5038616;28;20020;-84
2023/09/03 19:15:35;;;;;;;;;;;;;;;8.30;100.00;100604.06;5038720;28;19921;-82
2023/09/03 19:18:00;;;;;;;;;;;;;;;8.21;100.00;100602.47;5037447;28;19948;-85
2023/09/03 19:20:26;;;;;;;;;;;;;;;8.21;100.00;100606.88;5039261;28;19925;-89
2023/09/03 19:22:51;;;;;;;;;;;;;;;8.20;100.00;100598.09;5035326;28;19921;-85
2023/09/03 19:25:16;;;;;;;;;;;;;;;8.23;100.00;100605.94;5038005;28;19925;-85
2023/09/03 19:27:42;;;;;;;;;;;;;;;8.21;100.00;100606.88;5036378;28;20268;-85
2023/09/03 19:30:07;;;;;;;;;;;;;;;8.22;100.00;100611.25;5035668;28;19994;-85
2023/09/03 19:32:33;;;;;;;;;;;;;;;8.18;100.00;100610.44;5036357;28;20307;-86
2023/09/03 19:34:58;;;;;;;;;;;;;;;8.07;100.00;100607.16;5036376;28;19917;-85
2023/09/03 19:37:24;;;;;;;;;;;;;;;8.13;100.00;100609.66;5038315;28;19944;-86
2023/09/03 19:39:49;;;;;;;;;;;;;;;8.18;100.00;100618.38;5034349;28;19943;-86
2023/09/03 19:42:14;;;;;;;;;;;;;;;8.17;100.00;100617.50;5036034;28;19921;-85
2023/09/03 19:44:40;;;;;;;;;;;;;;;8.18;100.00;100608.69;5038690;28;19921;-83
2023/09/03 19:47:05;;;;;;;;;;;;;;;8.15;100.00;100610.50;5039787;28;20277;-82
2023/09/03 19:49:30;;;;;;;;;;;;;;;8.14;100.00;100607.00;5037647;28;19929;-82
2023/09/03 19:51:55;;;;;;;;;;;;;;;8.07;100.00;100602.72;5032912;28;20015;-83
2023/09/03 19:54:22;;;;;;;;;;;;;;;8.10;100.00;100607.09;5040622;28;19921;-84
2023/09/03 19:56:47;;;;;;;;;;;;;;;8.05;100.00;100614.25;5023738;28;19917;-84
2023/09/03 19:59:12;;;;;;;;;;;;;;;8.01;100.00;100602.88;5005174;28;19927;-84
2023/09/03 20:01:38;;;;;;;;;;;;;;;8.09;100.00;100606.22;5020623;28;19925;-84
2023/09/03 20:04:03;;;;;;;;;;;;;;;8.07;100.00;100609.78;5006241;28;20384;-84
2023/09/03 20:06:28;;;;;;;;;;;;;;;8.05;100.00;100609.81;5020678;28;20344;-84
2023/09/03 20:08:53;;;;;;;;;;;;;;;8.08;100.00;100612.41;5003709;28;19918;-85
2023/09/03 20:11:19;;;;;;;;;;;;;;;8.05;100.00;100609.81;5022485;28;20327;-85
2023/09/03 20:13:45;;;;;;;;;;;;;;;8.01;100.00;100613.44;5005217;28;19924;-84
2023/09/03 20:16:10;;;;;;;;;;;;;;;8.06;100.00;100608.03;5005033;28;19921;-84
2023/09/03 20:18:35;;;;;;;;;;;;;;;8.09;100.00;100614.16;5000040;28;19932;-83
2023/09/03 20:21:01;;;;;;;;;;;;;;;8.04;100.00;100621.28;5023579;28;19922;-84
2023/09/03 20:23:27;;;;;;;;;;;;;;;8.09;100.00;100619.44;5004125;28;19964;-84
2023/09/03 20:26:02;;;;;;;;;;;;;;;8.14;100.00;100614.91;5003792;28;19964;-84
2023/09/03 20:28:28;;;;;;;;;;;;;;;8.16;100.00;100613.13;5005610;28;20295;-90
2023/09/03 20:30:54;;;;;;;;;;;;;;;8.08;100.00;100609.75;5002457;28;19929;-83
2023/09/03 20:33:19;;;;;;;;;;;;;;;8.21;100.00;100613.03;5020429;28;19925;-85
2023/09/03 20:35:48;;;;;;;;;;;;;;;8.11;100.00;100611.47;5019963;28;20371;-85
2023/09/03 20:38:15;;;;;;;;;;;;;;;8.13;100.00;100614.94;5020991;28;20008;-85
2023/09/03 20:40:40;;;;;;;;;;;;;;;8.09;100.00;100615.91;5004285;28;19925;-84
2023/09/03 20:43:05;;;;;;;;;;;;;;;8.07;100.00;100610.66;5003011;28;19917;-83
2023/09/03 20:45:30;;;;;;;;;;;;;;;8.05;100.00;100607.19;5004420;28;19921;-80
2023/09/03 20:47:56;;;;;;;;;;;;;;;8.15;100.00;100607.88;5013997;28;19917;-86
2023/09/03 20:50:21;;;;;;;;;;;;;;;8.11;100.00;100614.97;5020650;28;19921;-85
2023/09/03 20:52:46;;;;;;;;;;;;;;;8.15;100.00;100608.75;5001688;28;20000;-82
2023/09/03 20:55:11;;;;;;;;;;;;;;;8.06;100.00;100608.03;5002532;28;20680;-84
2023/09/03 20:57:36;;;;;;;;;;;;;;;8.02;100.00;100603.72;5003706;28;20296;-84
2023/09/03 21:00:04;;;;;;;;;;;;;;;8.14;100.00;100607.00;5021490;28;19979;-84
2023/09/03 21:02:29;;;;;;;;;;;;;;;8.10;100.00;100607.94;5003344;28;20387;-84
2023/09/03 21:04:54;;;;;;;;;;;;;;;8.08;100.00;100609.75;5021951;28;19925;-84
2023/09/03 21:07:20;;;;;;;;;;;;;;;8.09;100.00;100606.22;5022280;28;20431;-84
2023/09/03 21:09:47;;;;;;;;;;;;;;;8.10;100.00;100605.31;5001573;28;20335;-84
2023/09/03 21:12:12;;;;;;;;;;;;;;;8.16;100.00;100606.97;5019508;28;20003;-84
2023/09/03 21:14:41;;;;;;;;;;;;;;;8.17;100.00;100606.94;5019140;28;20056;-84
2023/09/03 21:17:06;;;;;;;;;;;;;;;8.18;100.00;100613.09;5004458;28;19921;-84
2023/09/03 21:19:35;;;;;;;;;;;;;;;8.18;100.00;100619.25;5020751;28;19921;-84
2023/09/03 21:22:00;;;;;;;;;;;;;;;8.19;100.00;100626.25;5018514;28;20431;-84
2023/09/03 21:24:25;;;;;;;;;;;;;;;8.16;100.00;100636.88;5019884;28;19925;-84
2023/09/03 21:26:50;;;;;;;;;;;;;;;8.21;100.00;100634.16;5018708;28;20024;-84
2023/09/03 21:29:19;;;;;;;;;;;;;;;8.21;100.00;100635.94;5003732;28;20014;-84
2023/09/03 21:31:44;;;;;;;;;;;;;;;8.22;100.00;100630.63;5005108;28;19929;-84
2023/09/03 21:34:10;;;;;;;;;;;;;;;8.17;100.00;100632.47;5020285;28;20021;-84
2023/09/03 21:36:35;;;;;;;;;;;;;;;8.12;100.00;100629.94;5021028;28;19929;-84
2023/09/03 21:39:00;;;;;;;;;;;;;;;8.08;100.00;100628.22;5003267;28;19956;-84
2023/09/03 21:41:25;;;;;;;;;;;;;;;8.07;100.00;100615.94;5007633;28;19921;-84
2023/09/03 21:43:54;;;;;;;;;;;;;;;8.10;100.00;100620.28;5025437;28;19917;-84
2023/09/03 21:46:19;;;;;;;;;;;;;;;8.15;100.00;100624.59;5025292;28;19917;-83
2023/09/03 21:48:44;;;;;;;;;;;;;;;8.18;100.00;100629.81;5025999;28;20387;-84
2023/09/03 21:51:09;;;;;;;;;;;;;;;8.14;100.00;100627.25;5007778;28;19925;-83
2023/09/03 21:53:35;;;;;;;;;;;;;;;8.09;100.00;100623.81;5006219;28;19972;-83
2023/09/03 21:56:03;;;;;;;;;;;;;;;8.08;100.00;100624.75;5023882;28;19918;-82
2023/09/03 21:58:29;;;;;;;;;;;;;;;8.04;100.00;100615.13;5025517;28;20299;-82
2023/09/03 22:00:59;;;;;;;;;;;;;;;7.92;100.00;100617.09;5024895;28;20004;-83
2023/09/03 22:03:24;;;;;;;;;;;;;;;7.97;100.00;100622.28;5006740;28;19960;-83
2023/09/03 22:05:49;;;;;;;;;;;;;;;8.04;100.00;100628.31;5024520;28;19979;-84
2023/09/03 22:08:15;;;;;;;;;;;;;;;8.07;100.00;100620.34;5006429;28;19924;-84
2023/09/03 22:10:40;;;;;;;;;;;;;;;8.08;100.00;100616.81;5022228;28;19921;-84
2023/09/03 22:13:05;;;;;;;;;;;;;;;8.06;100.00;100613.31;5024020;28;19921;-83
2023/09/03 22:15:31;;;;;;;;;;;;;;;7.98;100.00;100613.50;5006852;28;20012;-83
2023/09/03 22:17:56;;;;;;;;;;;;;;;7.99;100.00;100625.75;5023338;28;19921;-83
2023/09/03 22:20:22;;;;;;;;;;;;;;;8.00;100.00;100619.59;5006941;28;19920;-86
2023/09/03 22:22:51;;;;;;;;;;;;;;;8.02;100.00;100617.78;5023039;28;19917;-84
2023/09/03 22:25:17;;;;;;;;;;;;;;;8.00;100.00;100624.88;5002719;28;20016;-85
2023/09/03 22:27:42;;;;;;;;;;;;;;;7.98;100.00;100626.69;5006599;28;19922;-84
2023/09/03 22:30:08;;;;;;;;;;;;;;;7.93;100.00;100612.69;5024883;28;19928;-83
2023/09/03 22:32:33;;;;;;;;;;;;;;;7.96;100.00;100617.91;5005497;28;20564;-83
2023/09/03 22:34:58;;;;;;;;;;;;;;;7.95;100.00;100621.47;5005211;28;20365;-83
2023/09/03 22:37:24;;;;;;;;;;;;;;;7.87;100.00;100620.75;5004530;28;19932;-82
2023/09/03 22:39:49;;;;;;;;;;;;;;;7.93;100.00;100615.31;5004254;28;20457;-83
2023/09/03 22:42:14;;;;;;;;;;;;;;;7.90;100.00;100623.31;5003223;28;19992;-83
2023/09/03 22:44:39;;;;;;;;;;;;;;;7.90;100.00;100628.59;5002690;28;19921;-84
2023/09/03 22:47:06;;;;;;;;;;;;;;;7.91;100.00;100630.31;5006603;28;20308;-81
2023/09/03 22:49:31;;;;;;;;;;;;;;;7.88;100.00;100622.47;5004317;28;19931;-81
2023/09/03 22:51:56;;;;;;;;;;;;;;;7.86;100.00;100616.34;5023671;28;20016;-82
2023/09/03 22:54:22;;;;;;;;;;;;;;;7.85;100.00;100619.88;5022921;28;19921;-82
2023/09/03 22:56:47;;;;;;;;;;;;;;;7.91;100.00;100614.50;5024163;28;19913;-82